createdAt,value
2017-07-29T00:00:06.509Z,0
2017-07-29T00:01:16.776Z,0
2017-07-29T00:02:27.043Z,0
2017-07-29T00:03:37.058Z,0
2017-07-29T00:04:47.040Z,0
2017-07-29T00:05:57.309Z,0
2017-07-29T00:07:07.257Z,0
2017-07-29T00:08:17.525Z,0
2017-07-29T00:09:27.792Z,0
2017-07-29T00:10:37.741Z,0
2017-07-29T00:11:48.008Z,0
2017-07-29T00:12:58.278Z,0
2017-07-29T00:14:08.544Z,0
2017-07-29T00:15:18.811Z,0
2017-07-29T00:16:29.079Z,0
2017-07-29T00:17:39.340Z,0
2017-07-29T00:18:49.286Z,0
2017-07-29T00:19:59.555Z,0
2017-07-29T00:21:09.512Z,0
2017-07-29T00:22:19.778Z,0
2017-07-29T00:23:30.045Z,0
2017-07-29T00:24:40.313Z,0
2017-07-29T00:25:50.580Z,0
2017-07-29T00:27:00.846Z,0
2017-07-29T00:28:11.213Z,0
2017-07-29T00:29:21.480Z,0
2017-07-29T00:30:31.759Z,0
2017-07-29T00:31:42.028Z,0
2017-07-29T00:32:52.296Z,0
2017-07-29T00:34:02.568Z,0
2017-07-29T00:35:12.832Z,0
2017-07-29T00:36:22.788Z,0
2017-07-29T00:37:33.060Z,0
2017-07-29T00:38:43.028Z,0
2017-07-29T00:39:53.304Z,0
2017-07-29T00:41:03.573Z,0
2017-07-29T00:42:13.522Z,0
2017-07-29T00:43:23.786Z,0
2017-07-29T00:44:33.737Z,0
2017-07-29T00:45:43.697Z,0
2017-07-29T00:46:53.961Z,0
2017-07-29T00:48:03.917Z,0
2017-07-29T00:49:13.869Z,0
2017-07-29T00:50:23.818Z,0
2017-07-29T00:51:34.082Z,0
2017-07-29T00:52:44.352Z,0
2017-07-29T00:53:54.619Z,0
2017-07-29T00:55:04.567Z,0
2017-07-29T00:56:14.525Z,0
2017-07-29T00:57:24.796Z,0
2017-07-29T00:58:35.064Z,0
2017-07-29T00:59:45.338Z,0
2017-07-29T01:00:55.603Z,0
2017-07-29T01:02:04.932Z,0
2017-07-29T01:03:14.564Z,0
2017-07-29T01:04:24.512Z,0
2017-07-29T01:05:34.782Z,0
2017-07-29T01:06:45.055Z,0
2017-07-29T01:07:55.323Z,0
2017-07-29T01:09:05.272Z,0
2017-07-29T01:10:15.539Z,0
2017-07-29T01:11:25.494Z,0
2017-07-29T01:12:35.445Z,0
2017-07-29T01:13:45.710Z,0
2017-07-29T01:14:55.981Z,0
2017-07-29T01:16:05.933Z,0
2017-07-29T01:17:15.888Z,0
2017-07-29T01:18:26.160Z,0
2017-07-29T01:19:36.429Z,0
2017-07-29T01:20:46.380Z,0
2017-07-29T01:21:56.642Z,0
2017-07-29T01:23:06.605Z,0
2017-07-29T01:24:16.873Z,0
2017-07-29T01:25:27.142Z,0
2017-07-29T01:26:37.101Z,0
2017-07-29T01:27:47.366Z,0
2017-07-29T01:28:57.635Z,0
2017-07-29T01:30:07.586Z,0
2017-07-29T01:31:17.548Z,0
2017-07-29T01:32:27.814Z,0
2017-07-29T01:33:38.091Z,0
2017-07-29T01:34:48.358Z,0
2017-07-29T01:35:58.622Z,0
2017-07-29T01:37:08.896Z,0
2017-07-29T01:38:18.848Z,0
2017-07-29T01:39:29.113Z,0
2017-07-29T01:40:39.390Z,0
2017-07-29T01:41:49.658Z,0
2017-07-29T01:42:59.610Z,0
2017-07-29T01:44:09.877Z,0
2017-07-29T01:45:19.827Z,0
2017-07-29T01:46:30.115Z,0
2017-07-29T01:47:40.392Z,0
2017-07-29T01:48:50.660Z,0
2017-07-29T01:50:02.930Z,0
2017-07-29T01:51:13.194Z,0
2017-07-29T01:52:23.147Z,0
2017-07-29T01:53:33.415Z,0
2017-07-29T01:54:43.680Z,0
2017-07-29T01:55:53.957Z,0
2017-07-29T01:57:04.223Z,0
2017-07-29T01:58:14.182Z,0
2017-07-29T01:59:24.452Z,0
2017-07-29T02:00:34.720Z,0
2017-07-29T02:01:44.989Z,0
2017-07-29T02:02:55.256Z,0
2017-07-29T02:04:05.519Z,0
2017-07-29T02:05:15.157Z,0
2017-07-29T02:06:25.130Z,0
2017-07-29T02:07:35.395Z,0
2017-07-29T02:08:45.657Z,0
2017-07-29T02:09:55.923Z,0
2017-07-29T02:11:05.247Z,0
2017-07-29T02:12:15.511Z,0
2017-07-29T02:13:25.930Z,0
2017-07-29T02:14:36.199Z,0
2017-07-29T02:15:46.473Z,0
2017-07-29T02:16:56.735Z,0
2017-07-29T02:18:06.682Z,0
2017-07-29T02:19:16.956Z,0
2017-07-29T02:20:27.224Z,0
2017-07-29T02:21:36.861Z,0
2017-07-29T02:22:47.131Z,0
2017-07-29T02:23:57.395Z,0
2017-07-29T02:25:07.663Z,0
2017-07-29T02:26:17.949Z,0
2017-07-29T02:27:28.212Z,0
2017-07-29T02:28:38.163Z,0
2017-07-29T02:29:48.424Z,0
2017-07-29T02:30:58.703Z,0
2017-07-29T02:32:08.978Z,0
2017-07-29T02:33:18.938Z,5
2017-07-29T02:34:29.208Z,5
2017-07-29T02:35:39.163Z,5
2017-07-29T02:36:49.434Z,5
2017-07-29T02:37:59.398Z,5
2017-07-29T02:39:09.663Z,5
2017-07-29T02:40:19.936Z,5
2017-07-29T02:41:29.889Z,5
2017-07-29T02:42:40.152Z,5
2017-07-29T02:43:50.429Z,5
2017-07-29T02:45:00.694Z,10
2017-07-29T02:46:10.955Z,10
2017-07-29T02:47:21.223Z,10
2017-07-29T02:48:31.489Z,10
2017-07-29T02:49:41.757Z,10
2017-07-29T02:50:52.025Z,10
2017-07-29T02:52:02.313Z,10
2017-07-29T02:53:12.587Z,15
2017-07-29T02:54:22.852Z,15
2017-07-29T02:55:33.119Z,15
2017-07-29T02:56:43.076Z,15
2017-07-29T02:57:53.339Z,15
2017-07-29T02:59:03.599Z,15
2017-07-29T03:00:13.248Z,20
2017-07-29T03:01:23.529Z,20
2017-07-29T03:02:33.799Z,20
2017-07-29T03:03:44.064Z,20
2017-07-29T03:04:54.331Z,20
2017-07-29T03:06:04.281Z,20
2017-07-29T03:07:14.549Z,25
2017-07-29T03:08:24.185Z,25
2017-07-29T03:09:34.451Z,25
2017-07-29T03:10:44.722Z,25
2017-07-29T03:11:54.984Z,25
2017-07-29T03:13:04.934Z,25
2017-07-29T03:14:14.889Z,30
2017-07-29T03:15:25.151Z,30
2017-07-29T03:16:35.418Z,30
2017-07-29T03:17:45.688Z,30
2017-07-29T03:18:55.949Z,30
2017-07-29T03:20:05.908Z,35
2017-07-29T03:21:16.177Z,35
2017-07-29T03:22:26.444Z,35
2017-07-29T03:23:36.399Z,40
2017-07-29T03:24:46.674Z,40
2017-07-29T03:25:56.625Z,40
2017-07-29T03:27:06.590Z,40
2017-07-29T03:28:16.859Z,45
2017-07-29T03:29:27.124Z,45
2017-07-29T03:30:37.409Z,45
2017-07-29T03:31:47.681Z,45
2017-07-29T03:32:57.640Z,45
2017-07-29T03:34:07.915Z,45
2017-07-29T03:35:17.870Z,45
2017-07-29T03:36:28.142Z,45
2017-07-29T03:37:38.417Z,45
2017-07-29T03:38:48.365Z,45
2017-07-29T03:39:58.630Z,45
2017-07-29T03:41:08.582Z,45
2017-07-29T03:42:18.851Z,45
2017-07-29T03:43:29.119Z,50
2017-07-29T03:44:39.384Z,45
2017-07-29T03:45:49.648Z,45
2017-07-29T03:46:59.601Z,45
2017-07-29T03:48:09.561Z,50
2017-07-29T03:49:19.823Z,50
2017-07-29T03:50:29.785Z,50
2017-07-29T03:51:40.057Z,50
2017-07-29T03:52:50.322Z,55
2017-07-29T03:54:00.286Z,55
2017-07-29T03:55:09.609Z,55
2017-07-29T03:56:19.564Z,55
2017-07-29T03:57:29.512Z,55
2017-07-29T03:58:39.781Z,55
2017-07-29T03:59:50.047Z,55
2017-07-29T04:01:00.314Z,60
2017-07-29T04:02:10.590Z,65
2017-07-29T04:03:20.873Z,65
2017-07-29T04:04:30.828Z,70
2017-07-29T04:05:40.786Z,70
2017-07-29T04:06:50.739Z,70
2017-07-29T04:08:01.008Z,75
2017-07-29T04:09:11.280Z,75
2017-07-29T04:10:20.916Z,75
2017-07-29T04:11:31.184Z,80
2017-07-29T04:12:41.148Z,80
2017-07-29T04:13:51.103Z,80
2017-07-29T04:15:01.369Z,85
2017-07-29T04:16:11.645Z,85
2017-07-29T04:17:21.613Z,85
2017-07-29T04:18:31.877Z,85
2017-07-29T04:19:42.146Z,95
2017-07-29T04:20:52.418Z,100
2017-07-29T04:22:05.607Z,105
2017-07-29T04:23:15.870Z,110
2017-07-29T04:24:26.149Z,115
2017-07-29T04:25:36.104Z,115
2017-07-29T04:26:46.372Z,120
2017-07-29T04:27:56.639Z,125
2017-07-29T04:29:06.908Z,130
2017-07-29T04:30:17.177Z,135
2017-07-29T04:31:27.134Z,140
2017-07-29T04:32:37.397Z,140
2017-07-29T04:33:47.666Z,140
2017-07-29T04:34:57.933Z,140
2017-07-29T04:36:08.206Z,150
2017-07-29T04:37:18.165Z,150
2017-07-29T04:38:28.442Z,150
2017-07-29T04:39:38.712Z,155
2017-07-29T04:40:48.983Z,155
2017-07-29T04:41:58.938Z,155
2017-07-29T04:43:09.213Z,165
2017-07-29T04:44:19.482Z,165
2017-07-29T04:45:29.751Z,165
2017-07-29T04:46:40.026Z,165
2017-07-29T04:47:50.299Z,170
2017-07-29T04:49:00.263Z,175
2017-07-29T04:50:10.248Z,175
2017-07-29T04:51:20.518Z,170
2017-07-29T04:52:30.792Z,175
2017-07-29T04:53:40.427Z,175
2017-07-29T04:54:50.701Z,180
2017-07-29T04:56:00.974Z,180
2017-07-29T04:57:10.932Z,170
2017-07-29T04:58:21.205Z,170
2017-07-29T04:59:31.472Z,170
2017-07-29T05:00:41.430Z,175
2017-07-29T05:01:51.696Z,170
2017-07-29T05:03:01.968Z,160
2017-07-29T05:04:12.241Z,160
2017-07-29T05:05:22.514Z,160
2017-07-29T05:06:32.781Z,160
2017-07-29T05:07:43.059Z,150
2017-07-29T05:08:53.326Z,140
2017-07-29T05:10:03.595Z,125
2017-07-29T05:11:13.864Z,105
2017-07-29T05:12:23.823Z,100
2017-07-29T05:13:34.102Z,100
2017-07-29T05:14:44.063Z,105
2017-07-29T05:15:54.335Z,125
2017-07-29T05:17:04.608Z,140
2017-07-29T05:18:14.884Z,140
2017-07-29T05:19:25.152Z,140
2017-07-29T05:20:35.417Z,130
2017-07-29T05:21:45.683Z,130
2017-07-29T05:22:55.949Z,145
2017-07-29T05:24:05.904Z,150
2017-07-29T05:25:16.185Z,155
2017-07-29T05:26:26.456Z,155
2017-07-29T05:27:36.410Z,155
2017-07-29T05:28:46.692Z,155
2017-07-29T05:29:56.652Z,140
2017-07-29T05:31:06.603Z,125
2017-07-29T05:32:16.870Z,130
2017-07-29T05:33:26.510Z,180
2017-07-29T05:34:36.783Z,205
2017-07-29T05:35:46.745Z,205
2017-07-29T05:36:57.015Z,205
2017-07-29T05:38:07.281Z,205
2017-07-29T05:39:17.548Z,205
2017-07-29T05:40:27.810Z,200
2017-07-29T05:41:38.078Z,200
2017-07-29T05:42:48.349Z,195
2017-07-29T05:43:58.622Z,190
2017-07-29T05:45:08.899Z,180
2017-07-29T05:46:19.170Z,190
2017-07-29T05:47:29.121Z,205
2017-07-29T05:48:39.388Z,210
2017-07-29T05:49:49.345Z,210
2017-07-29T05:50:59.304Z,200
2017-07-29T05:52:09.263Z,210
2017-07-29T05:53:19.216Z,235
2017-07-29T05:54:29.483Z,270
2017-07-29T05:55:39.122Z,270
2017-07-29T05:56:49.391Z,270
2017-07-29T05:57:59.658Z,275
2017-07-29T05:59:09.612Z,275
2017-07-29T06:00:19.885Z,285
2017-07-29T06:01:29.839Z,290
2017-07-29T06:02:39.802Z,295
2017-07-29T06:03:50.073Z,275
2017-07-29T06:05:00.345Z,265
2017-07-29T06:06:09.674Z,260
2017-07-29T06:07:19.626Z,250
2017-07-29T06:08:29.900Z,245
2017-07-29T06:09:39.866Z,265
2017-07-29T06:10:49.817Z,275
2017-07-29T06:12:00.122Z,280
2017-07-29T06:13:10.076Z,295
2017-07-29T06:14:19.402Z,300
2017-07-29T06:15:29.670Z,305
2017-07-29T06:16:39.950Z,310
2017-07-29T06:17:50.218Z,315
2017-07-29T06:19:00.489Z,315
2017-07-29T06:20:10.448Z,315
2017-07-29T06:21:20.725Z,305
2017-07-29T06:22:31.003Z,315
2017-07-29T06:23:40.955Z,315
2017-07-29T06:24:51.223Z,325
2017-07-29T06:26:01.499Z,340
2017-07-29T06:27:11.772Z,335
2017-07-29T06:28:22.043Z,330
2017-07-29T06:29:32.315Z,325
2017-07-29T06:30:41.962Z,320
2017-07-29T06:31:52.233Z,310
2017-07-29T06:33:02.525Z,315
2017-07-29T06:34:12.488Z,330
2017-07-29T06:35:22.758Z,340
2017-07-29T06:36:33.031Z,345
2017-07-29T06:37:42.998Z,345
2017-07-29T06:38:53.272Z,330
2017-07-29T06:40:03.554Z,335
2017-07-29T06:41:13.829Z,340
2017-07-29T06:42:24.101Z,345
2017-07-29T06:43:34.379Z,340
2017-07-29T06:44:44.021Z,350
2017-07-29T06:45:53.974Z,340
2017-07-29T06:47:04.257Z,320
2017-07-29T06:48:14.244Z,320
2017-07-29T06:49:24.210Z,330
2017-07-29T06:50:34.481Z,340
2017-07-29T06:51:44.437Z,345
2017-07-29T06:52:54.703Z,355
2017-07-29T06:54:04.981Z,360
2017-07-29T06:55:14.949Z,360
2017-07-29T06:56:25.221Z,355
2017-07-29T06:57:35.510Z,345
2017-07-29T06:58:45.786Z,355
2017-07-29T06:59:56.067Z,355
2017-07-29T07:01:06.034Z,365
2017-07-29T07:02:16.335Z,340
2017-07-29T07:03:26.325Z,335
2017-07-29T07:04:36.630Z,345
2017-07-29T07:05:46.898Z,340
2017-07-29T07:06:57.173Z,355
2017-07-29T07:08:07.147Z,390
2017-07-29T07:09:17.430Z,390
2017-07-29T07:10:27.703Z,400
2017-07-29T07:11:37.983Z,415
2017-07-29T07:12:47.962Z,420
2017-07-29T07:13:58.235Z,430
2017-07-29T07:15:08.505Z,455
2017-07-29T07:16:18.466Z,465
2017-07-29T07:17:28.741Z,480
2017-07-29T07:18:39.022Z,460
2017-07-29T07:19:49.295Z,415
2017-07-29T07:20:59.250Z,395
2017-07-29T07:22:09.536Z,360
2017-07-29T07:23:19.799Z,325
2017-07-29T07:24:30.068Z,295
2017-07-29T07:25:40.336Z,280
2017-07-29T07:26:50.607Z,275
2017-07-29T07:28:00.878Z,310
2017-07-29T07:29:11.144Z,370
2017-07-29T07:30:21.411Z,430
2017-07-29T07:31:31.713Z,395
2017-07-29T07:32:41.683Z,375
2017-07-29T07:33:51.962Z,450
2017-07-29T07:35:02.235Z,480
2017-07-29T07:36:12.513Z,445
2017-07-29T07:37:22.469Z,365
2017-07-29T07:38:32.445Z,305
2017-07-29T07:39:42.403Z,295
2017-07-29T07:40:52.677Z,300
2017-07-29T07:42:02.637Z,305
2017-07-29T07:43:12.289Z,295
2017-07-29T07:44:22.564Z,290
2017-07-29T07:45:32.855Z,310
2017-07-29T07:46:42.813Z,300
2017-07-29T07:47:52.774Z,285
2017-07-29T07:49:03.043Z,275
2017-07-29T07:50:13.009Z,270
2017-07-29T07:51:23.280Z,295
2017-07-29T07:52:33.552Z,275
2017-07-29T07:53:43.828Z,290
2017-07-29T07:54:54.099Z,265
2017-07-29T07:56:04.055Z,260
2017-07-29T07:57:14.330Z,250
2017-07-29T07:58:24.602Z,240
2017-07-29T07:59:34.880Z,230
2017-07-29T08:00:45.156Z,220
2017-07-29T08:01:55.114Z,215
2017-07-29T08:03:05.077Z,215
2017-07-29T08:04:15.349Z,220
2017-07-29T08:05:25.308Z,225
2017-07-29T08:06:35.584Z,230
2017-07-29T08:07:45.861Z,230
2017-07-29T08:08:56.129Z,235
2017-07-29T08:10:06.097Z,240
2017-07-29T08:11:16.054Z,260
2017-07-29T08:12:26.332Z,290
2017-07-29T08:13:36.290Z,315
2017-07-29T08:14:46.570Z,325
2017-07-29T08:15:56.838Z,315
2017-07-29T08:17:07.108Z,295
2017-07-29T08:18:17.379Z,265
2017-07-29T08:19:27.652Z,245
2017-07-29T08:20:37.608Z,250
2017-07-29T08:21:47.573Z,270
2017-07-29T08:22:57.844Z,285
2017-07-29T08:24:08.118Z,295
2017-07-29T08:25:18.386Z,305
2017-07-29T08:26:28.654Z,310
2017-07-29T08:27:38.922Z,305
2017-07-29T08:28:48.884Z,300
2017-07-29T08:29:58.838Z,300
2017-07-29T08:31:09.111Z,300
2017-07-29T08:32:19.383Z,315
2017-07-29T08:33:29.656Z,330
2017-07-29T08:34:39.307Z,340
2017-07-29T08:35:49.572Z,350
2017-07-29T08:36:59.536Z,360
2017-07-29T08:38:09.815Z,365
2017-07-29T08:39:19.777Z,370
2017-07-29T08:40:30.047Z,365
2017-07-29T08:41:40.010Z,355
2017-07-29T08:42:50.289Z,345
2017-07-29T08:44:00.564Z,350
2017-07-29T08:45:10.524Z,365
2017-07-29T08:46:20.930Z,370
2017-07-29T08:47:30.888Z,380
2017-07-29T08:48:41.154Z,380
2017-07-29T08:49:51.433Z,375
2017-07-29T08:51:01.708Z,370
2017-07-29T08:52:12.037Z,370
2017-07-29T08:53:21.706Z,375
2017-07-29T08:54:31.990Z,390
2017-07-29T08:55:42.264Z,415
2017-07-29T08:56:52.538Z,430
2017-07-29T08:58:02.499Z,415
2017-07-29T08:59:12.768Z,415
2017-07-29T09:00:22.728Z,405
2017-07-29T09:01:33.004Z,385
2017-07-29T09:02:43.272Z,365
2017-07-29T09:03:53.558Z,345
2017-07-29T09:05:03.836Z,320
2017-07-29T09:06:14.108Z,300
2017-07-29T09:07:24.377Z,285
2017-07-29T09:08:34.654Z,270
2017-07-29T09:09:44.621Z,250
2017-07-29T09:10:54.894Z,235
2017-07-29T09:12:04.542Z,230
2017-07-29T09:13:14.500Z,225
2017-07-29T09:14:24.455Z,230
2017-07-29T09:15:34.725Z,240
2017-07-29T09:16:44.368Z,250
2017-07-29T09:17:54.635Z,265
2017-07-29T09:19:04.908Z,280
2017-07-29T09:20:14.653Z,295
2017-07-29T09:21:23.995Z,300
2017-07-29T09:22:33.952Z,310
2017-07-29T09:23:44.229Z,310
2017-07-29T09:24:54.509Z,305
2017-07-29T09:26:04.792Z,305
2017-07-29T09:27:15.065Z,325
2017-07-29T09:28:25.339Z,335
2017-07-29T09:29:35.297Z,345
2017-07-29T09:30:45.257Z,365
2017-07-29T09:31:55.224Z,390
2017-07-29T09:33:05.193Z,410
2017-07-29T09:34:15.466Z,430
2017-07-29T09:35:25.422Z,450
2017-07-29T09:36:35.380Z,460
2017-07-29T09:37:45.344Z,475
2017-07-29T09:38:55.301Z,470
2017-07-29T09:40:05.582Z,460
2017-07-29T09:41:15.546Z,445
2017-07-29T09:42:25.831Z,455
2017-07-29T09:43:35.784Z,450
2017-07-29T09:44:46.060Z,450
2017-07-29T09:45:56.329Z,450
2017-07-29T09:47:06.609Z,455
2017-07-29T09:48:16.884Z,465
2017-07-29T09:49:26.845Z,460
2017-07-29T09:50:37.117Z,465
2017-07-29T09:51:47.390Z,480
2017-07-29T09:52:57.050Z,485
2017-07-29T09:54:07.041Z,500
2017-07-29T09:55:17.010Z,510
2017-07-29T09:56:27.287Z,520
2017-07-29T09:57:37.247Z,535
2017-07-29T09:58:47.518Z,530
2017-07-29T09:59:57.478Z,495
2017-07-29T10:01:07.753Z,450
2017-07-29T10:02:18.026Z,415
2017-07-29T10:03:27.991Z,380
2017-07-29T10:04:38.273Z,325
2017-07-29T10:05:48.542Z,260
2017-07-29T10:06:58.814Z,255
2017-07-29T10:08:09.087Z,255
2017-07-29T10:09:19.356Z,255
2017-07-29T10:10:29.627Z,250
2017-07-29T10:11:39.270Z,245
2017-07-29T10:12:49.545Z,240
2017-07-29T10:13:59.514Z,245
2017-07-29T10:15:09.483Z,250
2017-07-29T10:16:18.504Z,265
2017-07-29T10:17:28.781Z,280
2017-07-29T10:18:39.061Z,300
2017-07-29T10:19:49.341Z,315
2017-07-29T10:20:59.614Z,320
2017-07-29T10:22:09.887Z,275
2017-07-29T10:23:20.159Z,285
2017-07-29T10:24:30.134Z,270
2017-07-29T10:25:40.428Z,260
2017-07-29T10:26:50.391Z,275
2017-07-29T10:28:00.666Z,345
2017-07-29T10:29:10.316Z,385
2017-07-29T10:30:20.274Z,425
2017-07-29T10:31:30.581Z,405
2017-07-29T10:32:40.851Z,410
2017-07-29T10:33:50.814Z,395
2017-07-29T10:35:00.771Z,375
2017-07-29T10:36:10.422Z,435
2017-07-29T10:37:20.383Z,460
2017-07-29T10:38:30.656Z,490
2017-07-29T10:39:40.942Z,465
2017-07-29T10:40:50.912Z,440
2017-07-29T10:42:00.870Z,410
2017-07-29T10:43:10.833Z,385
2017-07-29T10:44:20.794Z,370
2017-07-29T10:45:30.759Z,375
2017-07-29T10:46:40.724Z,370
2017-07-29T10:47:50.696Z,360
2017-07-29T10:49:00.966Z,355
2017-07-29T10:50:10.300Z,340
2017-07-29T10:51:20.575Z,340
2017-07-29T10:52:30.861Z,355
2017-07-29T10:53:40.517Z,385
2017-07-29T10:54:50.789Z,400
2017-07-29T10:56:01.113Z,400
2017-07-29T10:57:11.084Z,400
2017-07-29T10:58:21.356Z,415
2017-07-29T10:59:31.641Z,425
2017-07-29T11:00:41.914Z,415
2017-07-29T11:01:52.195Z,425
2017-07-29T11:03:01.840Z,515
2017-07-29T11:04:12.118Z,495
2017-07-29T11:05:22.077Z,560
2017-07-29T11:06:32.037Z,565
2017-07-29T11:07:41.998Z,505
2017-07-29T11:08:52.272Z,470
2017-07-29T11:10:02.230Z,425
2017-07-29T11:11:12.199Z,395
2017-07-29T11:12:22.477Z,365
2017-07-29T11:13:32.749Z,345
2017-07-29T11:14:42.398Z,345
2017-07-29T11:15:52.674Z,345
2017-07-29T11:17:02.636Z,365
2017-07-29T11:18:12.279Z,390
2017-07-29T11:19:22.243Z,385
2017-07-29T11:20:32.214Z,370
2017-07-29T11:21:42.180Z,340
2017-07-29T11:22:52.461Z,315
2017-07-29T11:24:02.424Z,295
2017-07-29T11:25:12.697Z,275
2017-07-29T11:26:22.653Z,250
2017-07-29T11:27:32.304Z,270
2017-07-29T11:28:42.586Z,310
2017-07-29T11:29:52.862Z,330
2017-07-29T11:31:03.132Z,335
2017-07-29T11:32:12.778Z,320
2017-07-29T11:33:23.070Z,295
2017-07-29T11:34:33.341Z,270
2017-07-29T11:35:42.989Z,255
2017-07-29T11:36:52.950Z,250
2017-07-29T11:38:02.615Z,260
2017-07-29T11:39:12.889Z,275
2017-07-29T11:40:22.853Z,305
2017-07-29T11:41:33.142Z,320
2017-07-29T11:42:43.422Z,325
2017-07-29T11:43:53.693Z,325
2017-07-29T11:45:03.970Z,325
2017-07-29T11:46:14.247Z,330
2017-07-29T11:47:24.225Z,345
2017-07-29T11:48:34.507Z,385
2017-07-29T11:49:44.150Z,405
2017-07-29T11:50:54.421Z,390
2017-07-29T11:52:04.695Z,355
2017-07-29T11:53:14.660Z,305
2017-07-29T11:54:24.965Z,255
2017-07-29T11:55:35.237Z,210
2017-07-29T11:56:44.567Z,180
2017-07-29T11:57:54.525Z,160
2017-07-29T11:59:04.798Z,145
2017-07-29T12:00:14.752Z,145
2017-07-29T12:01:24.712Z,150
2017-07-29T12:02:34.988Z,150
2017-07-29T12:03:44.690Z,150
2017-07-29T12:04:54.974Z,170
2017-07-29T12:06:05.259Z,195
2017-07-29T12:07:15.557Z,220
2017-07-29T12:08:25.517Z,250
2017-07-29T12:09:35.896Z,300
2017-07-29T12:10:46.171Z,350
2017-07-29T12:11:56.443Z,415
2017-07-29T12:13:06.089Z,470
2017-07-29T12:14:16.373Z,500
2017-07-29T12:15:26.646Z,535
2017-07-29T12:16:36.611Z,565
2017-07-29T12:17:46.578Z,580
2017-07-29T12:18:56.852Z,560
2017-07-29T12:20:07.122Z,525
2017-07-29T12:21:17.077Z,505
2017-07-29T12:22:27.033Z,490
2017-07-29T12:23:37.312Z,490
2017-07-29T12:24:47.293Z,530
2017-07-29T12:25:57.560Z,650
2017-07-29T12:27:07.843Z,1180
2017-07-29T12:28:17.488Z,955
2017-07-29T12:29:27.757Z,950
2017-07-29T12:30:38.029Z,1100
2017-07-29T12:31:48.302Z,1085
2017-07-29T12:32:58.577Z,945
2017-07-29T12:34:08.542Z,935
2017-07-29T12:35:18.818Z,945
2017-07-29T12:36:28.469Z,995
2017-07-29T12:37:38.746Z,910
2017-07-29T12:38:49.025Z,830
2017-07-29T12:39:59.299Z,790
2017-07-29T12:41:09.576Z,760
2017-07-29T12:42:19.559Z,730
2017-07-29T12:43:29.835Z,685
2017-07-29T12:44:39.813Z,625
2017-07-29T12:45:49.777Z,580
2017-07-29T12:46:59.735Z,555
2017-07-29T12:48:09.697Z,545
2017-07-29T12:49:19.979Z,540
2017-07-29T12:50:30.253Z,520
2017-07-29T12:51:39.901Z,500
2017-07-29T12:52:50.187Z,470
2017-07-29T12:54:00.466Z,440
2017-07-29T12:55:10.742Z,445
2017-07-29T12:56:21.015Z,490
2017-07-29T12:57:30.970Z,500
2017-07-29T12:58:40.621Z,490
2017-07-29T12:59:50.586Z,475
2017-07-29T13:01:00.865Z,435
2017-07-29T13:02:10.830Z,410
2017-07-29T13:03:21.104Z,410
2017-07-29T13:04:31.383Z,415
2017-07-29T13:05:41.351Z,445
2017-07-29T13:06:51.627Z,465
2017-07-29T13:08:01.901Z,480
2017-07-29T13:09:12.175Z,495
2017-07-29T13:10:22.134Z,455
2017-07-29T13:11:32.405Z,440
2017-07-29T13:12:42.364Z,500
2017-07-29T13:13:52.648Z,520
2017-07-29T13:15:02.605Z,570
2017-07-29T13:16:12.566Z,615
2017-07-29T13:17:22.836Z,625
2017-07-29T13:18:33.106Z,620
2017-07-29T13:19:43.065Z,600
2017-07-29T13:20:53.354Z,560
2017-07-29T13:22:03.308Z,510
2017-07-29T13:23:13.268Z,460
2017-07-29T13:24:23.229Z,430
2017-07-29T13:25:33.811Z,435
2017-07-29T13:26:44.088Z,450
2017-07-29T13:27:54.360Z,450
2017-07-29T13:29:04.652Z,445
2017-07-29T13:30:14.930Z,405
2017-07-29T13:31:24.897Z,355
2017-07-29T13:32:34.851Z,315
2017-07-29T13:33:45.146Z,300
2017-07-29T13:34:55.420Z,335
2017-07-29T13:36:05.382Z,385
2017-07-29T13:37:15.344Z,465
2017-07-29T13:38:25.627Z,545
2017-07-29T13:39:35.591Z,615
2017-07-29T13:40:45.555Z,705
2017-07-29T13:41:55.828Z,725
2017-07-29T13:43:06.108Z,760
2017-07-29T13:44:16.066Z,835
2017-07-29T13:45:26.340Z,925
2017-07-29T13:46:36.615Z,980
2017-07-29T13:47:46.576Z,1025
2017-07-29T13:48:56.542Z,995
2017-07-29T13:50:06.815Z,915
2017-07-29T13:51:16.780Z,915
2017-07-29T13:52:26.741Z,1115
2017-07-29T13:53:37.018Z,1010
2017-07-29T13:54:47.290Z,1090
2017-07-29T13:55:57.571Z,3315
2017-07-29T13:57:07.532Z,3360
2017-07-29T13:58:17.818Z,2520
2017-07-29T13:59:27.786Z,3215
2017-07-29T14:00:37.750Z,870
2017-07-29T14:01:47.405Z,750
2017-07-29T14:02:57.700Z,685
2017-07-29T14:04:07.666Z,610
2017-07-29T14:05:17.327Z,580
2017-07-29T14:06:27.601Z,560
2017-07-29T14:07:37.567Z,540
2017-07-29T14:08:47.848Z,515
2017-07-29T14:09:58.130Z,485
2017-07-29T14:11:08.089Z,440
2017-07-29T14:12:18.366Z,415
2017-07-29T14:13:28.645Z,385
2017-07-29T14:14:38.925Z,375
2017-07-29T14:15:49.204Z,380
2017-07-29T14:16:59.483Z,425
2017-07-29T14:18:09.763Z,470
2017-07-29T14:19:20.045Z,510
2017-07-29T14:20:30.010Z,565
2017-07-29T14:21:40.338Z,710
2017-07-29T14:22:50.617Z,835
2017-07-29T14:24:00.280Z,1230
2017-07-29T14:25:09.930Z,955
2017-07-29T14:26:20.210Z,845
2017-07-29T14:27:30.167Z,745
2017-07-29T14:28:40.128Z,655
2017-07-29T14:29:50.408Z,575
2017-07-29T14:31:00.681Z,500
2017-07-29T14:32:10.017Z,450
2017-07-29T14:33:19.984Z,415
2017-07-29T14:34:29.945Z,380
2017-07-29T14:35:40.223Z,375
2017-07-29T14:36:50.512Z,370
2017-07-29T14:38:00.483Z,370
2017-07-29T14:39:10.772Z,365
2017-07-29T14:40:21.042Z,345
2017-07-29T14:41:30.697Z,305
2017-07-29T14:42:41.042Z,275
2017-07-29T14:43:50.687Z,250
2017-07-29T14:45:00.966Z,235
2017-07-29T14:46:11.241Z,235
2017-07-29T14:47:21.510Z,245
2017-07-29T14:48:31.779Z,275
2017-07-29T14:49:41.747Z,305
2017-07-29T14:50:52.024Z,340
2017-07-29T14:52:02.297Z,380
2017-07-29T14:53:12.279Z,420
2017-07-29T14:54:22.555Z,455
2017-07-29T14:55:32.826Z,460
2017-07-29T14:56:42.781Z,450
2017-07-29T14:57:52.426Z,445
2017-07-29T14:59:02.384Z,455
2017-07-29T15:00:12.659Z,495
2017-07-29T15:01:22.622Z,565
2017-07-29T15:02:32.581Z,615
2017-07-29T15:03:42.537Z,630
2017-07-29T15:04:52.812Z,700
2017-07-29T15:06:03.092Z,780
2017-07-29T15:07:13.371Z,875
2017-07-29T15:08:23.642Z,1130
2017-07-29T15:09:33.916Z,1045
2017-07-29T15:10:44.187Z,1100
2017-07-29T15:11:53.830Z,1075
2017-07-29T15:13:04.106Z,1050
2017-07-29T15:14:14.066Z,910
2017-07-29T15:15:24.027Z,860
2017-07-29T15:16:33.990Z,800
2017-07-29T15:17:44.265Z,780
2017-07-29T15:18:54.539Z,720
2017-07-29T15:20:04.829Z,710
2017-07-29T15:21:15.132Z,700
2017-07-29T15:22:25.406Z,695
2017-07-29T15:23:35.689Z,685
2017-07-29T15:24:45.657Z,665
2017-07-29T15:25:55.937Z,645
2017-07-29T15:27:05.899Z,635
2017-07-29T15:28:15.861Z,645
2017-07-29T15:29:26.136Z,675
2017-07-29T15:30:36.409Z,715
2017-07-29T15:31:46.371Z,790
2017-07-29T15:32:56.329Z,1075
2017-07-29T15:34:05.663Z,2290
2017-07-29T15:35:15.621Z,2175
2017-07-29T15:36:25.899Z,2285
2017-07-29T15:37:36.175Z,2530
2017-07-29T15:38:46.464Z,2870
2017-07-29T15:39:56.744Z,1460
2017-07-29T15:41:07.023Z,2850
2017-07-29T15:42:16.989Z,2035
2017-07-29T15:43:27.280Z,1700
2017-07-29T15:44:37.246Z,1085
2017-07-29T15:45:47.541Z,750
2017-07-29T15:46:57.826Z,700
2017-07-29T15:48:07.811Z,705
2017-07-29T15:49:18.101Z,740
2017-07-29T15:50:28.382Z,775
2017-07-29T15:51:38.346Z,1735
2017-07-29T15:52:48.628Z,1060
2017-07-29T15:53:58.912Z,1095
2017-07-29T15:55:09.201Z,965
2017-07-29T15:56:18.851Z,1010
2017-07-29T15:57:28.822Z,1665
2017-07-29T15:58:38.789Z,1150
2017-07-29T15:59:48.756Z,1110
2017-07-29T16:00:59.039Z,875
2017-07-29T16:02:09.317Z,755
2017-07-29T16:03:19.286Z,695
2017-07-29T16:04:29.254Z,645
2017-07-29T16:05:39.539Z,585
2017-07-29T16:06:49.823Z,555
2017-07-29T16:07:59.789Z,575
2017-07-29T16:09:10.084Z,645
2017-07-29T16:10:20.361Z,705
2017-07-29T16:11:30.637Z,710
2017-07-29T16:12:40.602Z,710
2017-07-29T16:13:50.921Z,705
2017-07-29T16:15:00.901Z,675
2017-07-29T16:16:10.881Z,655
2017-07-29T16:17:21.161Z,635
2017-07-29T16:18:31.442Z,660